Qamdo, China
Current Conditions -  °F | °C
As of 4:00 PM on Friday 31 Oct 2014 (Local Time) from ZUUU Reporting Station
Scattered Clouds Scattered Clouds  
Wind Chill: 64°   Ceiling: Unl
Heat Index: 64°   Visibility: 6mi
Dew Point: 55°   Wind: 2mph
Humidity: 73%   Direction: NA
Pressure: 29.97"   Gusts: NA
Location:  31.15°N, 97.17°E
Report Text: ZUUU 310800Z VRB01MPS 9999 SCT026 18/13 Q1015 NOSIG
Loading
Personal Weather Stations






























Interactive Weather Map
Tropical Storm Tracking
New forecast layout! Learn more

10-Day Weather Forecast

Advertisements
Track Severe Weather on mobile